createdAt,value
2018-04-12T00:02:04.977Z,7.70
2018-04-12T00:04:33.274Z,7.78
2018-04-12T00:07:02.316Z,8.40
2018-04-12T00:09:30.591Z,8.27
2018-04-12T00:11:58.869Z,8.05
2018-04-12T00:14:27.161Z,6.70
2018-04-12T00:16:55.444Z,7.87
2018-04-12T00:19:23.713Z,7.10
2018-04-12T00:21:52.010Z,7.80
2018-04-12T00:24:21.045Z,7.18
2018-04-12T00:26:49.322Z,7.43
2018-04-12T00:29:17.589Z,8.35
2018-04-12T00:31:45.885Z,6.87
2018-04-12T00:34:14.159Z,8.27
2018-04-12T00:36:42.435Z,8.48
2018-04-12T00:39:10.727Z,7.22
2018-04-12T00:41:39.358Z,7.78
2018-04-12T00:44:07.649Z,6.72
2018-04-12T00:46:35.914Z,7.85
2018-04-12T00:49:04.233Z,7.90
2018-04-12T00:51:32.495Z,7.93
2018-04-12T00:54:07.427Z,8.10
2018-04-12T00:56:35.688Z,7.30
2018-04-12T00:59:03.971Z,8.50
2018-04-12T01:01:32.246Z,7.70
2018-04-12T01:04:00.614Z,8.57
2018-04-12T01:06:28.911Z,8.70
2018-04-12T01:08:57.199Z,8.88
2018-04-12T01:11:25.633Z,9.00
2018-04-12T01:13:53.976Z,8.20
2018-04-12T01:16:23.030Z,9.07
2018-04-12T01:18:51.290Z,8.43
2018-04-12T01:21:19.580Z,9.40
2018-04-12T01:23:47.882Z,8.60
2018-04-12T01:26:16.159Z,8.25
2018-04-12T01:28:44.784Z,8.65
2018-04-12T01:31:13.052Z,9.32
2018-04-12T01:33:41.315Z,9.95
2018-04-12T01:36:10.344Z,9.93
2018-04-12T01:38:38.630Z,8.77
2018-04-12T01:41:06.904Z,9.65
2018-04-12T01:43:35.177Z,8.93
2018-04-12T01:46:03.442Z,9.00
2018-04-12T01:48:31.729Z,9.52
2018-04-12T01:50:59.989Z,9.50
2018-04-12T01:53:28.253Z,8.93
2018-04-12T01:55:56.516Z,10.30
2018-04-12T01:58:24.816Z,9.65
2018-04-12T02:00:53.093Z,9.93
2018-04-12T02:03:21.369Z,11.02
2018-04-12T02:05:49.637Z,10.40
2018-04-12T02:08:17.918Z,9.90
2018-04-12T02:10:46.221Z,11.02
2018-04-12T02:13:14.473Z,11.00
2018-04-12T02:15:42.989Z,10.55
2018-04-12T02:18:11.262Z,10.57
2018-04-12T02:20:39.554Z,11.20
2018-04-12T02:23:08.592Z,12.40
2018-04-12T02:25:36.871Z,11.45
2018-04-12T02:28:05.141Z,12.27
2018-04-12T02:30:33.433Z,11.10
2018-04-12T02:33:01.702Z,11.10
2018-04-12T02:35:29.983Z,10.00
2018-04-12T02:37:58.275Z,10.43
2018-04-12T02:40:26.583Z,14.18
2018-04-12T02:42:55.649Z,10.68
2018-04-12T02:45:23.907Z,9.63
2018-04-12T02:47:52.365Z,9.55
2018-04-12T02:50:20.762Z,12.00
2018-04-12T02:52:49.429Z,11.57
2018-04-12T02:55:17.709Z,12.02
2018-04-12T02:57:46.007Z,11.20
2018-04-12T03:00:14.333Z,15.20
2018-04-12T03:02:42.650Z,10.60
2018-04-12T03:05:10.940Z,12.57
2018-04-12T03:07:39.220Z,11.45
2018-04-12T03:10:07.521Z,10.60
2018-04-12T03:12:36.547Z,10.68
2018-04-12T03:15:04.844Z,11.32
2018-04-12T03:17:33.115Z,12.32
2018-04-12T03:20:01.518Z,12.60
2018-04-12T03:22:29.803Z,13.35
2018-04-12T03:24:58.978Z,11.07
2018-04-12T03:27:27.255Z,11.45
2018-04-12T03:29:55.552Z,11.23
2018-04-12T03:32:23.808Z,13.02
2018-04-12T03:34:52.367Z,10.88
2018-04-12T03:37:20.760Z,11.12
2018-04-12T03:39:49.045Z,11.05
2018-04-12T03:42:17.352Z,11.27
2018-04-12T03:44:46.382Z,11.12
2018-04-12T03:47:14.665Z,11.90
2018-04-12T03:49:43.015Z,12.13
2018-04-12T03:52:11.244Z,13.65
2018-04-12T03:54:39.526Z,12.57
2018-04-12T03:57:08.571Z,11.27
2018-04-12T03:59:36.854Z,12.07
2018-04-12T04:02:05.137Z,12.23
2018-04-12T04:04:33.407Z,12.02
2018-04-12T04:07:01.676Z,13.07
2018-04-12T04:09:29.959Z,12.80
2018-04-12T04:11:58.538Z,13.05
2018-04-12T04:14:41.972Z,11.27
2018-04-12T04:17:28.170Z,12.65
2018-04-12T04:20:15.397Z,12.65
2018-04-12T04:22:43.938Z,14.07
2018-04-12T04:25:12.553Z,12.77
2018-04-12T04:27:41.223Z,12.77
2018-04-12T04:30:09.748Z,16.92
2018-04-12T04:32:38.272Z,14.43
2018-04-12T04:35:06.994Z,13.55
2018-04-12T04:37:35.377Z,13.15
2018-04-12T04:40:03.932Z,15.82
2018-04-12T04:42:32.411Z,14.70
2018-04-12T04:45:00.726Z,14.82
2018-04-12T04:47:29.070Z,19.15
2018-04-12T04:49:57.593Z,16.00
2018-04-12T04:52:25.929Z,14.60
2018-04-12T04:54:54.278Z,15.15
2018-04-12T04:57:22.674Z,13.02
2018-04-12T04:59:51.090Z,12.02
2018-04-12T05:02:19.374Z,13.98
2018-04-12T05:04:47.746Z,13.75
2018-04-12T05:07:16.182Z,11.48
2018-04-12T05:09:45.166Z,14.77
2018-04-12T05:12:13.449Z,13.25
2018-04-12T05:14:41.720Z,14.90
2018-04-12T05:17:10.004Z,13.05
2018-04-12T05:19:38.318Z,13.60
2018-04-12T05:22:08.221Z,17.65
2018-04-12T05:24:36.879Z,19.02
2018-04-12T05:27:05.178Z,21.55
2018-04-12T05:29:33.442Z,18.92
2018-04-12T05:32:01.708Z,14.63
2018-04-12T05:34:29.991Z,26.85
2018-04-12T05:36:58.278Z,21.35
2018-04-12T05:39:26.564Z,19.85
2018-04-12T05:41:54.914Z,20.12
2018-04-12T05:44:23.285Z,20.48
2018-04-12T05:46:51.617Z,69.18
2018-04-12T05:49:20.658Z,20.80
2018-04-12T05:51:48.930Z,23.00
2018-04-12T05:54:17.224Z,17.40
2018-04-12T05:56:45.557Z,16.70
2018-04-12T05:59:13.859Z,16.02
2018-04-12T06:01:42.180Z,19.23
2018-04-12T06:04:11.419Z,26.10
2018-04-12T06:06:39.702Z,19.83
2018-04-12T06:09:08.220Z,22.60
2018-04-12T06:11:36.518Z,26.17
2018-04-12T06:14:05.597Z,23.92
2018-04-12T06:16:33.865Z,23.35
2018-04-12T06:19:02.140Z,19.67
2018-04-12T06:21:30.432Z,19.23
2018-04-12T06:23:59.574Z,19.27
2018-04-12T06:26:27.853Z,18.73
2018-04-12T06:28:56.162Z,18.20
2018-04-12T06:31:25.208Z,82.40
2018-04-12T06:33:53.491Z,25.17
2018-04-12T06:36:21.769Z,21.12
2018-04-12T06:38:50.056Z,19.50
2018-04-12T06:41:18.326Z,22.80
2018-04-12T06:43:53.162Z,21.35
2018-04-12T06:46:21.531Z,17.80
2018-04-12T06:48:49.800Z,16.65
2018-04-12T06:51:18.095Z,16.75
2018-04-12T06:53:46.375Z,22.27
2018-04-12T06:56:14.689Z,15.65
2018-04-12T06:58:43.856Z,23.73
2018-04-12T07:01:12.593Z,17.98
2018-04-12T07:03:40.878Z,22.02
2018-04-12T07:06:09.121Z,26.05
2018-04-12T07:08:38.173Z,18.52
2018-04-12T07:11:06.438Z,18.30
2018-04-12T07:13:34.718Z,23.55
2018-04-12T07:16:03.118Z,19.85
2018-04-12T07:18:31.410Z,17.25
2018-04-12T07:21:00.442Z,14.25
2018-04-12T07:23:28.725Z,13.52
2018-04-12T07:25:57.866Z,13.93
2018-04-12T07:28:26.145Z,12.57
2018-04-12T07:30:55.213Z,12.52
2018-04-12T07:33:23.495Z,11.85
2018-04-12T07:35:51.761Z,17.87
2018-04-12T07:38:20.033Z,14.80
2018-04-12T07:40:48.307Z,9.35
2018-04-12T07:43:16.620Z,9.70
2018-04-12T07:45:45.692Z,7.93
2018-04-12T07:48:14.029Z,12.30
2018-04-12T07:50:42.314Z,7.70
2018-04-12T07:53:10.614Z,18.30
2018-04-12T07:55:38.906Z,8.88
2018-04-12T07:58:07.928Z,8.07
2018-04-12T08:00:36.234Z,7.35
2018-04-12T08:03:04.540Z,10.27
2018-04-12T08:05:32.857Z,10.82
2018-04-12T08:08:01.182Z,10.45
2018-04-12T08:10:29.437Z,7.82
2018-04-12T08:12:57.806Z,8.83
2018-04-12T08:15:26.126Z,7.17
2018-04-12T08:17:55.367Z,5.87
2018-04-12T08:20:23.695Z,5.25
2018-04-12T08:22:52.763Z,8.93
2018-04-12T08:25:21.118Z,5.70
2018-04-12T08:27:49.414Z,16.97
2018-04-12T08:30:18.287Z,12.30
2018-04-12T08:32:47.506Z,6.37
2018-04-12T08:35:15.974Z,6.30
2018-04-12T08:37:44.253Z,9.60
2018-04-12T08:40:12.552Z,12.97
2018-04-12T08:42:40.829Z,6.00
2018-04-12T08:45:09.166Z,7.43
2018-04-12T08:47:37.439Z,9.03
2018-04-12T08:50:05.737Z,5.27
2018-04-12T08:52:34.030Z,18.63
2018-04-12T08:55:02.334Z,5.63
2018-04-12T08:57:31.383Z,6.13
2018-04-12T08:59:59.657Z,5.47
2018-04-12T09:02:27.918Z,5.73
2018-04-12T09:04:56.213Z,7.57
2018-04-12T09:07:25.281Z,8.33
2018-04-12T09:09:53.590Z,7.10
2018-04-12T09:12:21.951Z,7.90
2018-04-12T09:14:50.239Z,5.70
2018-04-12T09:17:18.511Z,6.83
2018-04-12T09:19:46.783Z,6.13
2018-04-12T09:22:15.111Z,11.33
2018-04-12T09:24:43.391Z,8.23
2018-04-12T09:27:11.662Z,8.60
2018-04-12T09:29:39.946Z,8.03
2018-04-12T09:32:08.251Z,11.03
2018-04-12T09:34:36.511Z,11.00
2018-04-12T09:37:04.769Z,9.40
2018-04-12T09:39:33.134Z,7.97
2018-04-12T09:42:01.632Z,7.20
2018-04-12T09:44:29.903Z,5.70
2018-04-12T09:46:58.177Z,7.20
2018-04-12T09:49:26.597Z,8.23
2018-04-12T09:51:55.656Z,7.77
2018-04-12T09:54:23.922Z,7.50
2018-04-12T09:56:52.235Z,8.53
2018-04-12T09:59:20.545Z,10.70
2018-04-12T10:02:02.149Z,6.30
2018-04-12T10:04:31.174Z,22.33
2018-04-12T10:07:05.591Z,12.07
2018-04-12T10:09:33.972Z,7.33
2018-04-12T10:12:02.249Z,7.93
2018-04-12T10:14:30.515Z,9.97
2018-04-12T10:16:58.768Z,6.53
2018-04-12T10:19:27.193Z,12.23
2018-04-12T10:21:55.447Z,12.33
2018-04-12T10:24:23.722Z,7.00
2018-04-12T10:26:51.995Z,10.00
2018-04-12T10:29:20.278Z,7.70
2018-04-12T10:31:48.636Z,10.23
2018-04-12T10:34:16.971Z,10.33
2018-04-12T10:36:45.297Z,12.87
2018-04-12T10:39:13.595Z,8.47
2018-04-12T10:41:41.871Z,8.63
2018-04-12T10:44:10.308Z,9.33
2018-04-12T10:46:38.591Z,7.20
2018-04-12T10:49:06.885Z,7.30
2018-04-12T10:51:35.169Z,9.97
2018-04-12T10:54:03.432Z,9.40
2018-04-12T10:56:32.010Z,5.40
2018-04-12T10:59:00.267Z,5.37
2018-04-12T11:01:28.570Z,5.70
2018-04-12T11:03:56.848Z,5.03
2018-04-12T11:06:25.141Z,6.40
2018-04-12T11:08:53.456Z,5.63
2018-04-12T11:11:22.510Z,9.30
2018-04-12T11:13:50.783Z,5.67
2018-04-12T11:16:19.038Z,4.70
2018-04-12T11:18:47.382Z,4.97
2018-04-12T11:21:16.431Z,8.10
2018-04-12T11:23:44.742Z,9.97
2018-04-12T11:26:13.047Z,7.90
2018-04-12T11:28:41.378Z,6.40
2018-04-12T11:31:09.630Z,7.40
2018-04-12T11:33:37.921Z,6.83
2018-04-12T11:36:06.202Z,7.80
2018-04-12T11:38:34.530Z,8.70
2018-04-12T11:41:02.795Z,6.67
2018-04-12T11:43:31.078Z,7.43
2018-04-12T11:45:59.372Z,6.93
2018-04-12T11:48:27.635Z,6.30
2018-04-12T11:50:55.909Z,7.50
2018-04-12T11:53:24.224Z,6.73
2018-04-12T11:55:52.559Z,6.57
2018-04-12T11:58:20.805Z,7.80
2018-04-12T12:00:50.804Z,9.40
2018-04-12T12:03:19.253Z,8.23
2018-04-12T12:05:47.605Z,9.17
2018-04-12T12:08:15.884Z,8.20
2018-04-12T12:10:44.155Z,11.63
2018-04-12T12:13:12.467Z,7.10
2018-04-12T12:15:41.546Z,8.43
2018-04-12T12:18:09.860Z,7.60
2018-04-12T12:20:39.232Z,12.53
2018-04-12T12:23:07.553Z,8.30
2018-04-12T12:25:36.602Z,10.80
2018-04-12T12:28:04.939Z,8.17
2018-04-12T12:30:33.233Z,7.10
2018-04-12T12:33:01.493Z,6.87
2018-04-12T12:35:29.791Z,7.23
2018-04-12T12:37:58.092Z,6.63
2018-04-12T12:40:26.410Z,5.83
2018-04-12T12:42:54.712Z,6.67
2018-04-12T12:45:23.002Z,7.83
2018-04-12T12:47:51.335Z,8.03
2018-04-12T12:50:19.610Z,5.07
2018-04-12T12:52:47.874Z,5.83
2018-04-12T12:55:16.943Z,5.57
2018-04-12T12:57:45.228Z,6.53
2018-04-12T13:00:13.472Z,7.23
2018-04-12T13:02:42.126Z,6.03
2018-04-12T13:05:10.443Z,7.37
2018-04-12T13:07:38.737Z,6.90
2018-04-12T13:10:07.068Z,8.10
2018-04-12T13:12:35.334Z,7.40
2018-04-12T13:15:03.608Z,5.60
2018-04-12T13:17:32.026Z,6.83
2018-04-12T13:20:00.454Z,6.97
2018-04-12T13:22:28.867Z,7.70
2018-04-12T13:24:57.208Z,6.43
2018-04-12T13:27:26.166Z,7.57
2018-04-12T13:29:55.195Z,7.50
2018-04-12T13:32:23.475Z,7.13
2018-04-12T13:34:51.774Z,6.47
2018-04-12T13:37:20.105Z,8.37
2018-04-12T13:39:49.160Z,7.10
2018-04-12T13:42:17.446Z,7.13
2018-04-12T13:44:45.904Z,7.77
2018-04-12T13:47:14.199Z,9.83
2018-04-12T13:49:42.460Z,9.03
2018-04-12T13:52:10.742Z,7.97
2018-04-12T13:54:39.035Z,7.70
2018-04-12T13:57:08.094Z,9.77
2018-04-12T13:59:36.436Z,12.03
2018-04-12T14:02:04.708Z,7.90
2018-04-12T14:04:33.061Z,7.93
2018-04-12T14:07:02.211Z,11.40
2018-04-12T14:09:30.504Z,10.00
2018-04-12T14:11:58.825Z,8.60
2018-04-12T14:14:27.864Z,8.93
2018-04-12T14:16:56.126Z,7.50
2018-04-12T14:19:24.412Z,8.70
2018-04-12T14:21:52.708Z,8.23
2018-04-12T14:24:21.811Z,9.50
2018-04-12T14:26:50.409Z,8.60
2018-04-12T14:29:18.699Z,10.20
2018-04-12T14:31:47.038Z,8.50
2018-04-12T14:34:15.390Z,6.80
2018-04-12T14:36:43.667Z,5.53
2018-04-12T14:39:12.116Z,6.60
2018-04-12T14:41:40.396Z,13.70
2018-04-12T14:44:08.686Z,8.03
2018-04-12T14:46:37.165Z,6.40
2018-04-12T14:49:06.274Z,7.63
2018-04-12T14:51:34.542Z,7.47
2018-04-12T14:54:02.867Z,8.20
2018-04-12T14:56:31.926Z,8.03
2018-04-12T14:59:00.196Z,6.60
2018-04-12T15:01:28.481Z,6.40
2018-04-12T15:03:57.545Z,9.03
2018-04-12T15:06:25.848Z,6.60
2018-04-12T15:08:54.463Z,6.53
2018-04-12T15:11:22.777Z,7.63
2018-04-12T15:13:51.059Z,6.43
2018-04-12T15:16:19.432Z,5.73
2018-04-12T15:18:47.721Z,6.30
2018-04-12T15:21:16.007Z,6.07
2018-04-12T15:23:45.166Z,5.37
2018-04-12T15:26:13.455Z,6.00
2018-04-12T15:28:41.746Z,7.67
2018-04-12T15:31:10.022Z,5.87
2018-04-12T15:33:38.294Z,5.57
2018-04-12T15:36:06.706Z,4.60
2018-04-12T15:38:35.009Z,3.80
2018-04-12T15:41:03.309Z,5.03
2018-04-12T15:43:31.580Z,2.80
2018-04-12T15:45:59.890Z,5.77
2018-04-12T15:48:28.160Z,4.47
2018-04-12T15:50:56.757Z,4.87
2018-04-12T15:53:25.051Z,2.73
2018-04-12T15:55:54.111Z,1.87
2018-04-12T15:58:22.413Z,1.67
2018-04-12T16:00:51.457Z,7.00
2018-04-12T16:03:19.721Z,2.47
2018-04-12T16:05:47.995Z,5.07
2018-04-12T16:08:16.255Z,1.97
2018-04-12T16:10:44.540Z,3.97
2018-04-12T16:13:12.822Z,2.30
2018-04-12T16:15:41.094Z,4.47
2018-04-12T16:18:09.375Z,2.53
2018-04-12T16:20:37.668Z,2.40
2018-04-12T16:23:05.950Z,2.00
2018-04-12T16:25:34.274Z,2.53
2018-04-12T16:28:03.375Z,3.03
2018-04-12T16:30:31.801Z,3.00
2018-04-12T16:33:00.545Z,3.23
2018-04-12T16:35:28.962Z,4.10
2018-04-12T16:37:57.596Z,3.30
2018-04-12T16:40:25.871Z,3.90
2018-04-12T16:42:54.468Z,3.30
2018-04-12T16:45:22.819Z,6.37
2018-04-12T16:47:51.066Z,5.50
2018-04-12T16:50:19.372Z,4.33
2018-04-12T16:52:48.418Z,6.13
2018-04-12T16:55:16.801Z,8.57
2018-04-12T16:57:45.109Z,5.40
2018-04-12T17:00:13.446Z,8.93
2018-04-12T17:02:41.752Z,5.87
2018-04-12T17:05:10.801Z,5.47
2018-04-12T17:07:39.100Z,11.33
2018-04-12T17:10:07.372Z,5.97
2018-04-12T17:12:35.731Z,5.07
2018-04-12T17:15:04.236Z,5.50
2018-04-12T17:17:32.525Z,5.27
2018-04-12T17:23:08.615Z,5.73
2018-04-12T17:25:37.731Z,10.93
2018-04-12T17:28:06.795Z,5.10
2018-04-12T17:30:35.093Z,7.73
2018-04-12T17:33:03.384Z,6.10
2018-04-12T17:35:31.706Z,8.03
2018-04-12T17:37:59.991Z,10.07
2018-04-12T17:40:28.765Z,7.67
2018-04-12T17:42:57.233Z,6.73
2018-04-12T17:45:25.527Z,6.00
2018-04-12T17:47:53.850Z,6.70
2018-04-12T17:50:26.000Z,6.57
2018-04-12T17:52:54.521Z,5.23
2018-04-12T17:55:23.611Z,7.03
2018-04-12T17:57:52.065Z,6.93
2018-04-12T18:00:21.148Z,6.47
2018-04-12T18:02:50.215Z,6.53
2018-04-12T18:05:18.653Z,5.83
2018-04-12T18:07:47.271Z,5.07
2018-04-12T18:10:15.633Z,4.43
2018-04-12T18:12:44.070Z,5.97
2018-04-12T18:15:12.486Z,4.10
2018-04-12T18:17:40.990Z,3.70
2018-04-12T18:20:10.187Z,3.70
2018-04-12T18:22:39.042Z,4.47
2018-04-12T18:25:07.562Z,4.07
2018-04-12T18:27:37.343Z,3.97
2018-04-12T18:30:05.793Z,5.57
2018-04-12T18:32:34.383Z,4.30
2018-04-12T18:35:03.071Z,3.90
2018-04-12T18:37:31.557Z,4.87
2018-04-12T18:40:00.219Z,4.30
2018-04-12T18:42:29.341Z,4.67
2018-04-12T18:44:57.941Z,6.33
2018-04-12T18:47:26.504Z,6.43
2018-04-12T18:49:55.083Z,5.13
2018-04-12T18:52:23.767Z,9.37
2018-04-12T18:54:52.153Z,6.32
2018-04-12T18:57:20.553Z,7.20
2018-04-12T18:59:49.318Z,5.32
2018-04-12T19:02:17.796Z,5.65
2018-04-12T19:04:46.150Z,6.47
2018-04-12T19:07:14.769Z,7.55
2018-04-12T19:09:43.557Z,10.77
2018-04-12T19:12:12.533Z,10.48
2018-04-12T19:14:41.227Z,6.70
2018-04-12T19:17:10.078Z,8.75
2018-04-12T19:19:39.107Z,6.18
2018-04-12T19:22:08.580Z,6.18
2018-04-12T19:24:37.056Z,5.80
2018-04-12T19:27:05.775Z,5.07
2018-04-12T19:29:34.181Z,8.80
2018-04-12T19:32:02.540Z,6.87
2018-04-12T19:34:30.882Z,6.40
2018-04-12T19:36:59.197Z,6.50
2018-04-12T19:39:27.499Z,7.47
2018-04-12T19:41:56.666Z,6.15
2018-04-12T19:44:24.928Z,6.57
2018-04-12T19:46:53.220Z,5.97
2018-04-12T19:49:21.574Z,7.30
2018-04-12T19:51:49.905Z,7.30
2018-04-12T19:54:19.045Z,7.65
2018-04-12T19:56:47.340Z,6.22
2018-04-12T19:59:15.609Z,8.88
2018-04-12T20:01:43.916Z,9.95
2018-04-12T20:04:12.201Z,7.85
2018-04-12T20:06:41.259Z,5.62
2018-04-12T20:09:09.539Z,5.40
2018-04-12T20:11:37.839Z,5.68
2018-04-12T20:14:06.900Z,5.28
2018-04-12T20:16:35.729Z,5.15
2018-04-12T20:19:04.786Z,6.05
2018-04-12T20:21:33.063Z,4.95
2018-04-12T20:24:01.361Z,6.82
2018-04-12T20:26:29.659Z,6.70
2018-04-12T20:28:58.720Z,5.90
2018-04-12T20:31:27.009Z,5.15
2018-04-12T20:33:55.288Z,7.72
2018-04-12T20:36:24.703Z,6.85
2018-04-12T20:38:53.892Z,5.90
2018-04-12T20:41:22.287Z,11.60
2018-04-12T20:43:50.595Z,13.70
2018-04-12T20:46:18.981Z,6.62
2018-04-12T20:48:47.279Z,6.68
2018-04-12T20:51:15.612Z,7.25
2018-04-12T20:53:43.909Z,6.10
2018-04-12T20:56:12.190Z,6.22
2018-04-12T20:58:40.508Z,5.80
2018-04-12T21:01:09.558Z,5.47
2018-04-12T21:03:37.814Z,5.03
2018-04-12T21:06:06.137Z,6.18
2018-04-12T21:08:35.195Z,6.10
2018-04-12T21:11:03.568Z,7.82
2018-04-12T21:13:31.894Z,6.55
2018-04-12T21:16:00.956Z,5.97
2018-04-12T21:18:29.248Z,7.37
2018-04-12T21:20:57.506Z,11.90
2018-04-12T21:23:25.879Z,8.25
2018-04-12T21:25:54.146Z,7.93
2018-04-12T21:28:22.439Z,7.53
2018-04-12T21:30:50.727Z,7.60
2018-04-12T21:33:19.065Z,9.23
2018-04-12T21:35:47.324Z,8.40
2018-04-12T21:38:15.614Z,7.75
2018-04-12T21:40:43.886Z,9.70
2018-04-12T21:43:12.365Z,11.00
2018-04-12T21:45:40.658Z,11.77
2018-04-12T21:48:08.942Z,10.02
2018-04-12T21:50:37.250Z,9.73
2018-04-12T21:53:06.279Z,9.55
2018-04-12T21:55:34.590Z,8.02
2018-04-12T21:58:02.866Z,11.40
2018-04-12T22:00:31.540Z,8.38
2018-04-12T22:02:59.814Z,8.80
2018-04-12T22:05:28.088Z,13.55
2018-04-12T22:07:56.395Z,11.55
2018-04-12T22:10:25.457Z,7.87
2018-04-12T22:12:53.710Z,8.30
2018-04-12T22:15:22.127Z,8.82
2018-04-12T22:17:51.187Z,6.78
2018-04-12T22:20:19.468Z,8.07
2018-04-12T22:22:47.771Z,7.25
2018-04-12T22:25:16.048Z,8.65
2018-04-12T22:27:44.325Z,8.25
2018-04-12T22:30:12.575Z,7.45
2018-04-12T22:32:40.959Z,6.78
2018-04-12T22:35:09.924Z,8.83
2018-04-12T22:37:38.932Z,7.55
2018-04-12T22:40:07.331Z,7.57
2018-04-12T22:42:35.594Z,6.78
2018-04-12T22:45:03.912Z,6.95
2018-04-12T22:47:32.961Z,6.55
2018-04-12T22:50:01.253Z,6.70
2018-04-12T22:52:29.505Z,6.50
2018-04-12T22:54:57.880Z,10.48
2018-04-12T22:57:26.160Z,7.72
2018-04-12T22:59:54.467Z,7.82
2018-04-12T23:02:22.707Z,9.05
2018-04-12T23:04:51.002Z,7.50
2018-04-12T23:07:19.271Z,7.72
2018-04-12T23:09:47.540Z,9.93
2018-04-12T23:12:15.817Z,7.53
2018-04-12T23:14:44.069Z,8.23
2018-04-12T23:17:12.525Z,8.63
2018-04-12T23:19:40.790Z,7.65
2018-04-12T23:22:09.830Z,8.05
2018-04-12T23:24:38.330Z,7.90
2018-04-12T23:27:06.605Z,9.25
2018-04-12T23:29:34.866Z,8.75
2018-04-12T23:34:38.924Z,8.55
2018-04-12T23:37:07.967Z,12.18
2018-04-12T23:39:36.234Z,9.25
2018-04-12T23:42:04.509Z,8.18
2018-04-12T23:44:32.871Z,8.95
2018-04-12T23:47:01.909Z,9.95
2018-04-12T23:49:30.190Z,8.52
2018-04-12T23:51:58.467Z,9.13
2018-04-12T23:54:26.730Z,7.55
2018-04-12T23:56:54.993Z,10.57
2018-04-12T23:59:23.293Z,10.48
